Detroit Lakes, Minnesota
Current Conditions -  °F | °C
As of 10:35 PM on Saturday 22 Nov 2014 (Local Time) from KDTL Reporting Station
Haze Haze  
Wind Chill: 24°   Ceiling: 200
Heat Index: 32°   Visibility: 2.5mi
Dew Point: 32°   Wind: 10mph
Humidity: 100%   Direction: 150°SSE
Pressure: 29.4"   Gusts: NA
Location:  46.82°N, 95.84°W
Report Text: KDTL 230435Z AUTO 15009KT 2 1/2SM BR OVC002 00/00 A2940 RMK AO2
Loading
Personal Weather Stations






























Interactive Weather Map New forecast layout! Learn more

10-Day Weather Forecast

Advertisements
Track Severe Weather on mobile